Time;durP1;ratioP1;P1;durP2;ratioP2;P2;SDS_P1;SDS_P2;PMS_P1;PMS_P2;Temp;Humidity;BMP_temperature;BMP_pressure;BME280_temperature;BME280_humidity;BME280_pressure;Samples;Min_cycle;Max_cycle;Signal;HPM_P1;HPM_P2
2022/05/15 00:02:42;;;;;;;6.05;3.58;;;;;;;18.10;54.96;100109.50;4871138;29;20116;-91
2022/05/15 00:05:08;;;;;;;3.70;3.28;;;;;;;18.09;55.28;100105.13;4886706;29;20477;-88
2022/05/15 00:07:34;;;;;;;5.55;3.42;;;;;;;18.06;55.70;100105.47;4855206;29;20495;-91
2022/05/15 00:10:00;;;;;;;7.38;3.60;;;;;;;18.00;55.81;100096.22;4855614;29;20033;-91
2022/05/15 00:12:25;;;;;;;8.57;3.95;;;;;;;17.98;55.99;100100.16;4870439;29;20025;-91
2022/05/15 00:14:52;;;;;;;5.80;3.70;;;;;;;17.97;55.44;100104.69;4855251;29;20032;-88
2022/05/15 00:17:17;;;;;;;6.95;3.78;;;;;;;17.96;55.71;100099.44;4886233;29;20041;-90
2022/05/15 00:19:43;;;;;;;7.22;3.83;;;;;;;17.91;56.07;100100.84;4857829;29;20033;-90
2022/05/15 00:22:08;;;;;;;6.10;3.88;;;;;;;17.92;55.91;100097.13;4858824;29;20037;-91
2022/05/15 00:24:35;;;;;;;7.68;3.83;;;;;;;17.92;55.48;100102.53;4858679;29;20032;-90
2022/05/15 00:27:00;;;;;;;9.60;4.30;;;;;;;17.91;56.11;100102.72;4874422;29;20029;-91
2022/05/15 00:29:25;;;;;;;8.18;4.10;;;;;;;17.86;56.29;100105.97;4873954;29;20037;-91
2022/05/15 00:31:51;;;;;;;6.10;3.83;;;;;;;17.85;56.31;100100.72;4858654;29;20027;-86
2022/05/15 00:34:16;;;;;;;6.30;3.95;;;;;;;17.75;56.08;100095.56;4884390;29;20152;-91
2022/05/15 00:36:42;;;;;;;7.78;4.13;;;;;;;17.65;56.61;100100.34;4892704;29;20073;-87
2022/05/15 00:39:09;;;;;;;7.30;4.03;;;;;;;17.58;56.91;100102.94;4876911;29;20048;-91
2022/05/15 00:41:37;;;;;;;6.72;4.22;;;;;;;17.42;57.15;100094.06;4892298;29;20383;-86
2022/05/15 00:44:04;;;;;;;5.10;3.88;;;;;;;17.58;57.68;100094.81;4877109;29;20520;-90
2022/05/15 00:46:36;;;;;;;8.52;4.28;;;;;;;17.60;56.39;100094.63;4861628;29;20041;-88
2022/05/15 00:49:04;;;;;;;8.60;4.47;;;;;;;17.65;57.26;100100.34;4877004;29;20153;-91
2022/05/15 00:51:38;;;;;;;7.97;4.45;;;;;;;17.69;56.57;100103.56;4877043;29;20036;-89
2022/05/15 00:54:30;;;;;;;6.95;4.50;;;;;;;17.73;56.22;100096.78;4892558;29;20047;-91
2022/05/15 00:57:30;;;;;;;6.72;4.40;;;;;;;17.73;55.54;100102.19;4876564;29;20037;-91
2022/05/15 01:00:00;;;;;;;7.88;4.25;;;;;;;17.70;56.97;100094.44;4865918;29;20131;-91
2022/05/15 01:02:35;;;;;;;5.30;3.97;;;;;;;17.65;56.81;100094.94;4892052;29;20163;-87
2022/05/15 01:05:02;;;;;;;4.88;4.32;;;;;;;17.60;56.26;100098.19;4861313;29;20025;-90
2022/05/15 01:07:27;;;;;;;8.85;4.90;;;;;;;17.57;56.29;100101.25;4861128;29;20586;-91
2022/05/15 01:09:53;;;;;;;7.30;4.50;;;;;;;17.54;56.96;100098.91;4860986;29;20301;-89
2022/05/15 01:12:19;;;;;;;5.88;4.28;;;;;;;17.52;56.44;100095.53;4876432;29;20036;-91
2022/05/15 01:14:45;;;;;;;6.38;4.63;;;;;;;17.51;56.51;100098.41;4876368;29;20080;-91
2022/05/15 01:17:11;;;;;;;6.35;4.15;;;;;;;17.50;56.79;100091.31;4860941;29;20035;-89
2022/05/15 01:19:39;;;;;;;6.93;4.53;;;;;;;17.48;56.23;100088.78;4876414;29;20029;-91
2022/05/15 01:22:05;;;;;;;8.32;4.55;;;;;;;17.49;57.11;100089.63;4876043;29;20039;-90
2022/05/15 01:24:31;;;;;;;7.85;4.60;;;;;;;17.45;56.95;100088.28;4876159;29;20119;-90
2022/05/15 01:27:00;;;;;;;7.07;4.50;;;;;;;17.44;56.69;100087.44;4860513;29;20110;-91
2022/05/15 01:29:28;;;;;;;7.65;4.72;;;;;;;17.41;56.50;100082.41;4891752;29;20036;-90
2022/05/15 01:31:54;;;;;;;7.37;4.13;;;;;;;17.42;57.12;100088.66;4875901;29;20084;-90
2022/05/15 01:34:19;;;;;;;5.07;4.05;;;;;;;17.40;57.42;100098.81;4888593;29;20061;-90
2022/05/15 01:36:44;;;;;;;6.70;4.05;;;;;;;17.37;57.22;100094.59;4857397;29;20605;-90
2022/05/15 01:39:10;;;;;;;6.93;4.38;;;;;;;17.35;57.19;100088.53;4889021;29;20440;-89
2022/05/15 01:41:35;;;;;;;7.22;4.43;;;;;;;17.35;57.10;100085.81;4873127;29;20036;-91
2022/05/15 01:44:00;;;;;;;9.30;4.78;;;;;;;17.35;57.10;100087.69;4873194;29;20120;-92
2022/05/15 01:46:28;;;;;;;8.30;4.38;;;;;;;17.36;57.46;100083.97;4888482;29;20489;-91
2022/05/15 01:48:54;;;;;;;7.13;4.78;;;;;;;17.33;57.07;100077.06;4873030;29;20029;-90
2022/05/15 01:51:20;;;;;;;7.10;4.72;;;;;;;17.35;56.68;100077.72;4872751;29;20517;-91
2022/05/15 01:53:45;;;;;;;7.28;4.65;;;;;;;17.35;57.46;100082.28;4857008;29;20055;-86
2022/05/15 01:56:11;;;;;;;10.05;4.70;;;;;;;17.29;57.91;100083.84;4857082;29;20484;-87
2022/05/15 01:58:37;;;;;;;7.75;4.57;;;;;;;17.28;57.84;100076.75;4872128;29;20037;-88
2022/05/15 02:01:03;;;;;;;6.63;4.68;;;;;;;17.25;57.73;100080.66;4856986;29;20040;-90
2022/05/15 02:03:28;;;;;;;7.72;4.68;;;;;;;17.19;57.37;100078.66;4872367;29;20087;-87
2022/05/15 02:05:54;;;;;;;6.93;4.50;;;;;;;17.20;57.76;100085.75;4888013;29;20475;-92
2022/05/15 02:08:19;;;;;;;7.00;4.43;;;;;;;17.20;57.84;100076.81;4856544;29;20452;-87
2022/05/15 02:10:45;;;;;;;5.85;4.50;;;;;;;17.10;57.73;100085.13;4856725;29;20460;-89
2022/05/15 02:13:10;;;;;;;7.07;4.68;;;;;;;17.02;57.78;100077.03;4887557;29;20040;-89
2022/05/15 02:15:36;;;;;;;5.25;4.30;;;;;;;16.93;58.23;100078.09;4856661;29;20129;-88
2022/05/15 02:18:02;;;;;;;8.05;4.45;;;;;;;16.85;58.20;100072.75;4856558;29;20080;-90
2022/05/15 02:20:27;;;;;;;7.13;4.40;;;;;;;16.82;58.84;100081.19;4856499;29;20039;-91
2022/05/15 02:22:52;;;;;;;9.07;4.13;;;;;;;16.87;58.49;100070.69;4856309;29;20026;-86
2022/05/15 02:25:18;;;;;;;5.85;4.30;;;;;;;16.91;58.08;100064.75;4856708;29;20029;-90
2022/05/15 02:27:43;;;;;;;7.28;4.75;;;;;;;16.94;57.82;100066.28;4856091;29;20040;-89
2022/05/15 02:30:10;;;;;;;7.80;5.00;;;;;;;16.91;57.55;100069.31;4887531;29;20174;-87
2022/05/15 02:32:35;;;;;;;9.30;4.88;;;;;;;16.96;57.46;100066.94;4871572;29;20037;-90
2022/05/15 02:35:00;;;;;;;8.30;5.03;;;;;;;16.95;57.97;100070.66;4887180;29;20053;-85
2022/05/15 02:37:26;;;;;;;7.50;4.70;;;;;;;16.90;57.70;100063.09;4856220;29;20168;-90
2022/05/15 02:39:51;;;;;;;9.65;4.40;;;;;;;16.89;57.54;100065.97;4871800;29;20087;-85
2022/05/15 02:42:17;;;;;;;6.25;4.57;;;;;;;16.87;58.42;100068.84;4870836;29;20037;-90
2022/05/15 02:44:42;;;;;;;8.23;5.18;;;;;;;16.72;58.74;100067.91;4856140;29;20298;-87
2022/05/15 02:47:07;;;;;;;8.85;4.78;;;;;;;16.52;58.84;100072.81;4856002;29;20039;-90
2022/05/15 02:52:17;;;;;;;7.50;4.68;;;;;;;16.57;57.88;100059.66;4871471;29;20068;-90
2022/05/15 02:54:43;;;;;;;4.63;4.20;;;;;;;16.62;57.51;100067.22;4855760;29;20103;-87
2022/05/15 02:57:09;;;;;;;6.65;4.13;;;;;;;16.67;57.60;100064.88;4856091;29;20127;-90
2022/05/15 02:59:35;;;;;;;5.70;4.50;;;;;;;16.67;57.85;100062.19;4855496;29;20082;-91
2022/05/15 03:02:00;;;;;;;6.53;4.38;;;;;;;16.66;57.76;100058.63;4871125;29;20033;-86
2022/05/15 03:04:27;;;;;;;8.02;4.43;;;;;;;16.66;57.93;100065.91;4871162;29;20029;-90
2022/05/15 03:06:52;;;;;;;5.63;4.45;;;;;;;16.64;57.77;100065.19;4871391;29;20528;-88
2022/05/15 03:09:18;;;;;;;7.43;4.65;;;;;;;16.58;57.54;100055.94;4855809;29;20037;-88
2022/05/15 03:11:43;;;;;;;8.57;4.50;;;;;;;16.59;58.34;100054.91;4855806;29;20040;-87
2022/05/15 03:14:09;;;;;;;10.68;4.60;;;;;;;16.48;58.48;100055.28;4886691;29;20029;-90
2022/05/15 03:16:35;;;;;;;6.47;4.50;;;;;;;16.16;59.00;100053.50;4855640;29;20128;-86
2022/05/15 03:19:00;;;;;;;5.43;4.25;;;;;;;16.23;59.68;100049.09;4871051;29;20135;-88
2022/05/15 03:21:28;;;;;;;6.70;4.65;;;;;;;16.31;60.19;100054.47;4870970;29;20507;-90
2022/05/15 03:24:04;;;;;;;7.60;4.38;;;;;;;16.46;58.47;100049.19;4870946;29;20551;-89
2022/05/15 03:26:31;;;;;;;6.53;4.35;;;;;;;16.50;58.45;100044.28;4886169;29;20045;-87
2022/05/15 03:28:56;;;;;;;6.68;4.40;;;;;;;16.23;59.36;100049.09;4855228;29;20484;-88
2022/05/15 03:31:22;;;;;;;8.20;4.68;;;;;;;16.33;59.59;100043.50;4855381;29;20066;-91
2022/05/15 03:33:47;;;;;;;6.20;4.60;;;;;;;16.42;59.39;100039.78;4886099;29;20744;-89
2022/05/15 03:36:14;;;;;;;6.68;3.90;;;;;;;16.41;60.01;100040.78;4871033;29;20544;-90
2022/05/15 03:38:40;;;;;;;6.40;4.20;;;;;;;16.42;59.20;100042.47;4870870;29;20032;-87
2022/05/15 03:41:06;;;;;;;6.65;4.10;;;;;;;16.42;59.63;100041.63;4870779;29;20124;-89
2022/05/15 03:43:31;;;;;;;7.20;4.53;;;;;;;16.41;59.37;100043.47;4870815;29;20428;-90
2022/05/15 03:45:57;;;;;;;5.70;4.18;;;;;;;16.21;59.25;100037.63;4870808;29;20033;-86
2022/05/15 03:48:22;;;;;;;6.72;4.55;;;;;;;16.34;59.69;100047.91;4855262;29;20029;-89
2022/05/15 03:50:47;;;;;;;6.97;4.03;;;;;;;16.32;59.99;100042.66;4855430;29;20037;-85
2022/05/15 03:53:12;;;;;;;6.40;4.03;;;;;;;16.35;59.48;100044.19;4870420;29;20036;-89
2022/05/15 03:55:38;;;;;;;6.22;4.30;;;;;;;16.34;59.17;100037.94;4885910;29;20077;-86
2022/05/15 03:58:03;;;;;;;6.25;4.32;;;;;;;16.36;58.91;100044.00;4885981;29;20076;-89
2022/05/15 04:00:29;;;;;;;6.28;4.43;;;;;;;16.15;59.91;100050.97;4870471;29;20044;-87
2022/05/15 04:02:55;;;;;;;6.03;4.70;;;;;;;15.98;59.76;100048.28;4871649;29;20571;-90
2022/05/15 04:05:20;;;;;;;6.43;4.50;;;;;;;16.08;59.83;100052.66;4870456;29;20120;-87
2022/05/15 04:07:48;;;;;;;8.05;4.75;;;;;;;16.04;59.91;100054.84;4855227;29;20040;-90
2022/05/15 04:10:16;;;;;;;6.60;4.72;;;;;;;16.09;58.34;100062.47;4870694;29;20037;-90
2022/05/15 04:12:42;;;;;;;6.13;4.60;;;;;;;16.13;59.44;100061.94;4855237;29;20360;-90
2022/05/15 04:15:07;;;;;;;5.07;4.45;;;;;;;16.14;58.81;100060.94;4854907;29;20273;-91
2022/05/15 04:17:33;;;;;;;4.82;4.30;;;;;;;16.12;59.39;100062.97;4854806;29;20061;-91
2022/05/15 04:20:03;;;;;;;7.13;4.75;;;;;;;16.17;58.12;100060.59;4870181;29;20399;-89
2022/05/15 04:22:28;;;;;;;6.85;4.35;;;;;;;16.13;58.58;100061.09;4885862;29;20392;-89
2022/05/15 04:24:54;;;;;;;6.20;4.18;;;;;;;16.16;58.88;100067.00;4870488;29;20033;-90
2022/05/15 04:27:19;;;;;;;7.78;4.78;;;;;;;16.21;58.94;100066.47;4855035;29;20033;-90
2022/05/15 04:29:44;;;;;;;7.32;4.68;;;;;;;16.18;58.80;100058.72;4854823;29;20032;-90
2022/05/15 04:32:10;;;;;;;5.72;4.47;;;;;;;16.22;59.23;100065.47;4854830;29;20154;-88
2022/05/15 04:34:35;;;;;;;6.18;4.63;;;;;;;16.23;59.04;100064.47;4854418;29;20049;-90
2022/05/15 04:37:00;;;;;;;9.68;4.90;;;;;;;16.28;59.27;100062.94;4886033;29;20033;-88
2022/05/15 04:39:26;;;;;;;6.07;4.70;;;;;;;16.28;59.69;100064.78;4854787;29;20024;-90
2022/05/15 04:41:51;;;;;;;7.70;4.47;;;;;;;16.28;59.53;100067.47;4870284;29;20033;-90
2022/05/15 04:44:16;;;;;;;6.55;4.68;;;;;;;16.32;59.85;100058.03;4854464;29;20025;-90
2022/05/15 04:46:41;;;;;;;6.78;4.45;;;;;;;16.33;59.92;100055.16;4885790;29;20040;-89
2022/05/15 04:49:07;;;;;;;8.82;4.75;;;;;;;16.37;59.81;100061.03;4885639;29;20033;-90
2022/05/15 04:51:32;;;;;;;8.50;4.75;;;;;;;16.41;59.90;100066.94;4854571;29;20476;-89
2022/05/15 04:53:58;;;;;;;7.32;5.18;;;;;;;16.43;60.33;100070.31;4885525;29;20032;-91
2022/05/15 04:56:24;;;;;;;9.48;5.55;;;;;;;16.48;60.02;100076.03;4885705;29;20512;-90
2022/05/15 04:58:49;;;;;;;9.20;5.03;;;;;;;16.49;61.05;100073.16;4870004;29;20032;-90
2022/05/15 05:01:15;;;;;;;8.85;5.07;;;;;;;16.54;60.80;100067.22;4885522;29;20068;-88
2022/05/15 05:03:40;;;;;;;7.68;5.03;;;;;;;16.54;61.03;100067.22;4885242;29;20033;-89
2022/05/15 05:06:17;;;;;;;12.40;5.30;;;;;;;16.53;61.24;100076.34;4871729;29;20527;-91
2022/05/15 05:08:42;;;;;;;9.35;5.13;;;;;;;16.54;61.44;100075.31;4858018;29;20092;-90
2022/05/15 05:11:08;;;;;;;8.10;5.03;;;;;;;16.57;61.98;100064.22;4857501;29;20124;-85
2022/05/15 05:13:33;;;;;;;10.13;5.43;;;;;;;16.64;60.91;100079.53;4873392;29;20029;-91
2022/05/15 05:15:58;;;;;;;7.75;4.82;;;;;;;16.65;61.23;100077.69;4888380;29;20313;-89
2022/05/15 05:18:23;;;;;;;7.97;5.05;;;;;;;16.69;61.27;100076.34;4889247;29;20087;-90
2022/05/15 05:20:49;;;;;;;7.53;4.50;;;;;;;16.72;61.25;100084.09;4857574;29;20830;-86
2022/05/15 05:23:14;;;;;;;9.05;5.35;;;;;;;16.73;61.60;100080.38;4888852;29;20551;-91
2022/05/15 05:25:40;;;;;;;6.78;4.82;;;;;;;16.74;61.59;100078.53;4873123;29;20275;-88
2022/05/15 05:28:05;;;;;;;8.35;4.95;;;;;;;16.78;61.21;100077.16;4873273;29;20116;-91
2022/05/15 05:30:32;;;;;;;7.97;5.13;;;;;;;16.81;61.83;100068.69;4872835;29;20037;-90
2022/05/15 05:32:58;;;;;;;6.97;4.85;;;;;;;16.84;61.42;100071.91;4877510;29;20079;-85
2022/05/15 05:35:24;;;;;;;7.68;4.65;;;;;;;16.91;60.97;100067.47;4888473;29;20084;-90
2022/05/15 05:37:51;;;;;;;7.20;5.00;;;;;;;16.90;61.11;100073.88;4872705;29;20221;-85
2022/05/15 05:40:16;;;;;;;8.65;4.88;;;;;;;16.91;61.31;100075.56;4873043;29;20025;-87
2022/05/15 05:42:42;;;;;;;7.97;4.78;;;;;;;16.94;61.08;100077.09;4872502;29;20492;-91
2022/05/15 05:45:07;;;;;;;7.07;4.88;;;;;;;16.95;60.91;100065.25;4888562;29;20681;-89
2022/05/15 05:47:33;;;;;;;6.80;4.80;;;;;;;16.96;61.23;100064.25;4872401;29;20031;-89
2022/05/15 05:49:59;;;;;;;7.03;4.75;;;;;;;16.99;61.83;100074.69;4888155;29;20032;-88
2022/05/15 05:52:24;;;;;;;7.90;4.68;;;;;;;16.95;61.21;100079.59;4857011;29;20033;-90
2022/05/15 05:54:50;;;;;;;5.80;4.30;;;;;;;16.98;61.39;100073.00;4872773;29;20068;-89
2022/05/15 05:57:16;;;;;;;6.72;4.95;;;;;;;16.96;61.25;100078.59;4872619;29;20029;-86
2022/05/15 05:59:41;;;;;;;7.22;4.50;;;;;;;16.97;61.28;100080.28;4872583;29;20123;-85
2022/05/15 06:02:07;;;;;;;8.32;4.32;;;;;;;16.98;61.58;100078.41;4856803;29;20033;-90
2022/05/15 06:04:42;;;;;;;9.32;4.05;;;;;;;17.01;61.42;100072.66;4872323;29;20039;-89
2022/05/15 06:07:13;;;;;;;6.45;4.55;;;;;;;17.05;62.18;100067.75;4872582;29;20547;-90
2022/05/15 06:09:40;;;;;;;8.25;4.60;;;;;;;17.05;61.74;100065.91;4856859;29;20041;-90
2022/05/15 06:12:06;;;;;;;8.07;4.68;;;;;;;17.07;61.28;100071.97;4872270;29;20036;-91
2022/05/15 06:14:31;;;;;;;10.80;5.32;;;;;;;17.13;61.86;100073.13;4872522;29;20041;-91
2022/05/15 06:16:57;;;;;;;8.25;4.55;;;;;;;17.19;60.72;100070.56;4872175;29;20029;-87
2022/05/15 06:19:22;;;;;;;8.43;4.43;;;;;;;17.16;61.43;100070.91;4856735;29;20073;-85
2022/05/15 06:21:48;;;;;;;8.00;4.40;;;;;;;17.16;61.34;100068.22;4872205;29;20033;-89
2022/05/15 06:24:13;;;;;;;6.82;4.20;;;;;;;17.20;61.48;100066.00;4856470;29;20388;-85
2022/05/15 06:26:38;;;;;;;5.90;3.47;;;;;;;17.24;60.69;100065.44;4887488;29;20029;-88
2022/05/15 06:29:04;;;;;;;6.70;3.88;;;;;;;17.23;60.53;100066.47;4856301;29;20044;-86
2022/05/15 06:34:04;;;;;;;5.30;3.60;;;;;;;17.35;60.69;100069.59;5212723;23;20442;-90
2022/05/15 06:36:30;;;;;;;7.85;3.42;;;;;;;17.36;59.56;100065.88;4930081;29;20201;-87
2022/05/15 06:38:56;;;;;;;6.38;3.60;;;;;;;17.42;59.76;100069.72;4912376;29;20024;-90
2022/05/15 06:41:21;;;;;;;5.60;3.67;;;;;;;17.47;60.19;100072.72;4912908;29;20520;-91
2022/05/15 06:43:47;;;;;;;5.57;3.58;;;;;;;17.48;60.48;100071.72;4915742;29;20036;-88
2022/05/15 06:46:12;;;;;;;5.72;2.83;;;;;;;17.52;60.33;100068.50;4912918;29;20016;-90
2022/05/15 06:48:38;;;;;;;6.93;3.28;;;;;;;17.57;60.00;100071.50;4914691;29;20064;-90
2022/05/15 06:51:05;;;;;;;5.40;3.35;;;;;;;17.58;59.54;100073.19;4929278;29;20035;-90
2022/05/15 06:53:41;;;;;;;6.15;3.28;;;;;;;17.62;59.79;100066.38;4947394;29;20035;-87
2022/05/15 06:58:54;;;;;;;5.82;3.20;;;;;;;17.75;58.88;100065.81;4951681;29;20046;-94
2022/05/15 07:01:20;;;;;;;6.68;3.00;;;;;;;17.80;59.83;100070.66;4929480;29;20028;-89
2022/05/15 07:03:45;;;;;;;6.57;3.03;;;;;;;17.85;59.47;100070.97;4909466;29;20032;-87
2022/05/15 07:06:11;;;;;;;6.00;3.25;;;;;;;17.85;59.19;100063.69;4935002;29;20058;-88
2022/05/15 07:08:39;;;;;;;6.10;3.70;;;;;;;17.87;58.41;100060.81;4909130;29;20032;-92
2022/05/15 07:11:06;;;;;;;6.67;3.27;;;;;;;17.90;58.02;100060.44;4913269;29;20036;-88
2022/05/15 07:13:32;;;;;;;5.15;2.80;;;;;;;17.91;59.36;100068.38;4931332;29;20300;-89
2022/05/15 07:15:57;;;;;;;5.47;3.05;;;;;;;17.93;59.03;100062.78;4918228;29;20110;-89
2022/05/15 07:18:23;;;;;;;4.63;2.90;;;;;;;17.93;59.28;100063.63;4919085;29;20389;-89
2022/05/15 07:20:50;;;;;;;5.90;3.15;;;;;;;17.97;59.53;100068.66;4919651;29;20082;-89
2022/05/15 07:23:15;;;;;;;5.22;2.78;;;;;;;18.01;59.11;100060.03;4902913;29;20434;-88
2022/05/15 07:25:41;;;;;;;8.82;3.40;;;;;;;17.97;58.59;100064.09;4898682;29;20067;-89
2022/05/15 07:28:06;;;;;;;5.40;2.92;;;;;;;17.99;59.08;100055.81;4918603;29;20063;-89
2022/05/15 07:30:32;;;;;;;4.95;2.90;;;;;;;18.01;59.11;100064.59;4900734;29;20071;-89
2022/05/15 07:32:58;;;;;;;5.40;2.85;;;;;;;18.05;59.84;100064.03;4902177;29;20043;-90
2022/05/15 07:35:23;;;;;;;5.80;2.60;;;;;;;18.08;59.09;100060.97;4919588;29;20079;-88
2022/05/15 07:37:48;;;;;;;7.72;2.90;;;;;;;18.10;57.82;100056.22;4918524;29;20023;-90
2022/05/15 07:40:14;;;;;;;5.88;3.13;;;;;;;18.09;58.32;100067.22;4903369;29;20032;-88
2022/05/15 07:42:39;;;;;;;4.15;2.13;;;;;;;18.13;57.50;100068.53;4918516;29;20024;-89
2022/05/15 07:45:06;;;;;;;7.43;2.67;;;;;;;18.12;58.08;100059.56;4918548;29;20031;-89
2022/05/15 07:47:31;;;;;;;7.07;2.47;;;;;;;18.18;57.96;100060.69;4918777;29;20118;-89
2022/05/15 07:49:58;;;;;;;5.97;2.67;;;;;;;18.20;57.89;100050.53;4903496;29;20123;-88
2022/05/15 07:52:24;;;;;;;4.47;2.40;;;;;;;18.21;57.37;100058.47;4907149;29;20028;-88
2022/05/15 07:54:49;;;;;;;4.90;2.30;;;;;;;18.26;57.39;100052.50;4901835;29;20059;-89
2022/05/15 07:57:15;;;;;;;5.18;2.45;;;;;;;18.24;57.39;100049.97;4918928;29;20027;-89
2022/05/15 07:59:40;;;;;;;5.40;2.90;;;;;;;18.26;57.08;100055.19;4903112;29;20059;-89
2022/05/15 08:02:06;;;;;;;8.30;2.80;;;;;;;18.27;57.91;100050.63;4918198;29;20050;-90
2022/05/15 08:08:00;;;;;;;8.63;2.97;;;;;;;18.29;56.82;100044.00;4918473;29;20292;-89
2022/05/15 08:10:05;;;;;;;4.30;2.60;;;;;;;18.36;56.69;100036.81;4920006;29;20091;-89
2022/05/15 08:12:31;;;;;;;3.65;2.10;;;;;;;18.35;56.75;100037.84;4904602;29;20023;-89
2022/05/15 08:14:59;;;;;;;7.97;3.10;;;;;;;18.39;56.99;100036.44;4919433;29;20078;-88
2022/05/15 08:17:24;;;;;;;5.22;2.53;;;;;;;18.38;56.75;100037.47;4918055;29;20474;-89
2022/05/15 08:25:19;;;;;;;5.05;2.50;;;;;;;18.49;55.53;100028.06;4920278;29;20039;-89
2022/05/15 08:27:44;;;;;;;5.18;2.63;;;;;;;18.49;55.22;100028.06;4914584;29;20026;-87
2022/05/15 08:30:10;;;;;;;4.10;2.13;;;;;;;18.50;56.22;100027.88;4915462;29;20453;-88
2022/05/15 08:32:35;;;;;;;4.32;2.20;;;;;;;18.53;55.86;100024.78;4914134;29;20467;-89
2022/05/15 08:35:01;;;;;;;6.82;2.30;;;;;;;18.54;55.21;100022.91;4901307;29;20087;-74
2022/05/15 08:37:26;;;;;;;6.93;2.47;;;;;;;18.55;56.11;100028.16;4932145;29;20080;-89
2022/05/15 08:39:53;;;;;;;7.18;2.80;;;;;;;18.56;55.70;100029.81;4902186;29;20024;-88
2022/05/15 08:42:40;;;;;;;5.30;2.30;;;;;;;18.65;55.51;100025.16;4921720;29;20067;-90
2022/05/15 08:45:10;;;;;;;5.32;2.58;;;;;;;18.61;54.89;100023.84;4928879;29;20048;-89
2022/05/15 08:47:47;;;;;;;6.70;2.38;;;;;;;18.61;54.63;100017.59;4903705;29;20466;-88
2022/05/15 08:50:19;;;;;;;4.22;2.45;;;;;;;18.61;55.19;100014.88;4904059;29;20034;-89
2022/05/15 08:52:57;;;;;;;5.53;2.67;;;;;;;18.62;55.53;100019.28;4921062;29;20035;-88
2022/05/15 08:55:42;;;;;;;6.35;2.53;;;;;;;18.65;54.71;100016.22;4901555;29;20029;-89
2022/05/15 08:58:11;;;;;;;7.90;3.00;;;;;;;18.70;56.06;100013.78;4928022;29;20051;-89
2022/05/15 09:00:51;;;;;;;4.80;2.20;;;;;;;18.71;55.30;100010.03;4904906;29;20039;-88
2022/05/15 09:03:22;;;;;;;3.95;2.20;;;;;;;18.74;56.02;100017.78;4917261;29;20055;-88
2022/05/15 09:06:16;;;;;;;3.05;1.90;;;;;;;18.73;56.95;100014.22;4904793;29;20035;-88
2022/05/15 09:08:51;;;;;;;5.82;2.75;;;;;;;18.84;55.56;100010.19;4919804;29;20038;-88
2022/05/15 09:11:29;;;;;;;7.72;2.70;;;;;;;18.86;56.21;100021.69;4924965;29;20562;-89
2022/05/15 09:13:58;;;;;;;3.75;2.10;;;;;;;18.83;56.84;100017.47;4935643;29;20032;-89
2022/05/15 09:16:27;;;;;;;7.75;2.58;;;;;;;18.85;55.92;100020.84;4919861;29;20131;-89
2022/05/15 09:19:03;;;;;;;4.65;2.17;;;;;;;18.86;55.02;100011.69;4905077;29;20042;-89
2022/05/15 09:21:28;;;;;;;6.82;2.75;;;;;;;18.87;55.78;100021.50;4899962;29;20043;-88
2022/05/15 09:23:55;;;;;;;4.72;2.38;;;;;;;18.87;56.18;100017.94;4901647;29;20519;-88
2022/05/15 09:26:44;;;;;;;4.38;2.47;;;;;;;18.92;56.38;100023.66;4899420;29;20139;-89
2022/05/15 09:29:36;;;;;;;4.30;2.42;;;;;;;18.93;58.07;100021.78;4918845;29;20115;-89
2022/05/15 09:32:03;;;;;;;4.05;2.25;;;;;;;18.94;58.14;100015.34;4917140;29;20078;-89
2022/05/15 09:34:33;;;;;;;3.45;2.08;;;;;;;18.97;58.46;100007.66;4919993;29;20059;-89
2022/05/15 09:39:50;;;;;;;6.82;3.00;;;;;;;19.00;56.86;100001.84;4918168;29;20171;-89
2022/05/15 09:45:18;;;;;;;5.63;3.08;;;;;;;19.08;56.16;99996.31;4935196;29;20034;-88
2022/05/15 09:47:46;;;;;;;4.65;2.60;;;;;;;19.07;57.21;99993.78;4915522;29;20040;-88
2022/05/15 09:50:30;;;;;;;;;;;;;;;19.10;56.03;99993.41;4932867;29;20538;-89
2022/05/15 09:52:57;;;;;;;5.85;2.33;;;;;;;19.17;56.36;99991.59;4923192;29;19930;-88
2022/05/15 09:55:25;;;;;;;6.07;2.70;;;;;;;19.18;55.35;100001.41;4917307;29;20092;-88
2022/05/15 09:57:56;;;;;;;5.43;2.95;;;;;;;19.21;54.76;99998.31;4934037;29;20409;-87
2022/05/15 10:00:23;;;;;;;5.70;2.70;;;;;;;19.23;54.88;99988.13;4914604;29;20024;-88
2022/05/15 10:02:53;;;;;;;4.55;2.50;;;;;;;19.22;55.20;99985.59;4915552;29;20033;-88
2022/05/15 10:05:26;;;;;;;4.95;2.25;;;;;;;19.21;56.55;99986.63;4929809;29;20090;-88
2022/05/15 10:08:01;;;;;;;6.60;2.42;;;;;;;19.28;54.83;99990.25;4900812;29;20028;-88
2022/05/15 10:10:34;;;;;;;5.00;2.45;;;;;;;19.28;54.82;99982.13;4916799;29;20061;-87
2022/05/15 10:13:12;;;;;;;5.68;2.30;;;;;;;19.24;56.75;99981.66;4915520;29;20055;-88
2022/05/15 10:15:48;;;;;;;5.47;2.60;;;;;;;19.35;55.88;99981.13;4900772;29;20052;-88
2022/05/15 10:18:19;;;;;;;4.15;2.13;;;;;;;19.30;56.96;99975.47;4902083;29;20031;-88
2022/05/15 10:20:46;;;;;;;3.53;2.20;;;;;;;19.31;57.43;99971.72;4917129;29;20032;-88
2022/05/15 10:23:15;;;;;;;4.32;2.63;;;;;;;19.34;56.63;99959.63;4914708;29;20031;-88
2022/05/15 10:25:55;;;;;;;3.97;2.10;;;;;;;19.34;55.61;99962.34;4917093;29;20086;-88
2022/05/15 10:28:39;;;;;;;5.53;2.42;;;;;;;19.35;56.96;99964.03;4901726;29;20138;-89
2022/05/15 10:31:16;;;;;;;3.95;2.20;;;;;;;19.47;55.16;99963.34;4934706;29;20066;-88
2022/05/15 10:33:43;;;;;;;5.80;2.85;;;;;;;19.63;53.95;99961.41;4899107;29;20061;-89
2022/05/15 10:36:10;;;;;;;5.10;2.80;;;;;;;19.61;53.76;99961.59;4911334;29;20047;-87
2022/05/15 10:38:41;;;;;;;4.82;2.22;;;;;;;19.59;54.97;99954.69;4925447;29;20035;-90
2022/05/15 10:41:26;;;;;;;5.82;2.40;;;;;;;19.65;54.47;99964.75;4927921;29;20102;-89
2022/05/15 10:44:10;;;;;;;3.75;2.30;;;;;;;19.64;55.42;99950.34;4917765;29;20087;-88
2022/05/15 10:46:46;;;;;;;6.57;2.45;;;;;;;19.74;54.57;99950.00;4927460;29;20044;-88
2022/05/15 10:49:20;;;;;;;5.93;2.30;;;;;;;19.75;54.15;99949.81;4917402;29;20038;-89
2022/05/15 10:52:18;;;;;;;2.95;2.30;;;;;;;19.72;54.82;99936.63;4933187;29;20019;-88
2022/05/15 10:57:51;;;;;;;3.40;2.15;;;;;;;19.90;52.78;99940.75;4919428;29;20557;-88
2022/05/15 11:00:44;;;;;;;4.43;2.88;;;;;;;20.04;51.57;99935.19;4899983;29;20734;-88
2022/05/15 11:03:13;;;;;;;5.65;2.20;;;;;;;20.08;51.34;99932.91;4898545;29;20039;-88
2022/05/15 11:05:44;;;;;;;3.58;2.17;;;;;;;19.97;52.81;99928.06;4899270;29;20439;-88
2022/05/15 11:08:23;;;;;;;5.25;2.20;;;;;;;19.95;51.82;99933.69;4928728;29;20036;-88
2022/05/15 11:11:04;;;;;;;4.30;2.10;;;;;;;19.96;52.91;99926.38;4900976;29;20059;-88
2022/05/15 11:13:36;;;;;;;8.35;3.88;;;;;;;19.99;52.35;99918.66;4899762;29;20040;-92
2022/05/15 11:16:30;;;;;;;9.63;4.65;;;;;;;20.12;51.04;99926.03;4901765;29;20031;-89
2022/05/15 11:19:28;;;;;;;4.05;2.20;;;;;;;20.28;50.72;99924.88;4898158;29;20386;-88
2022/05/15 11:22:11;;;;;;;6.50;2.50;;;;;;;20.48;49.75;99925.00;4901023;29;20023;-89
2022/05/15 11:24:55;;;;;;;3.10;2.00;;;;;;;20.65;48.60;99924.44;4932915;29;20130;-88
2022/05/15 11:27:45;;;;;;;4.40;2.10;;;;;;;20.71;48.05;99909.19;4933882;29;20102;-88
2022/05/15 11:30:18;;;;;;;5.40;1.90;;;;;;;20.57;49.14;99910.19;4917093;29;20146;-88
2022/05/15 11:32:46;;;;;;;5.57;3.13;;;;;;;20.66;48.97;99906.25;4916474;29;20044;-89
2022/05/15 11:35:17;;;;;;;5.35;2.20;;;;;;;20.88;48.69;99906.97;4933941;29;20036;-88
2022/05/15 11:37:53;;;;;;;3.55;2.45;;;;;;;20.69;48.95;99898.53;4924928;29;20911;-89
2022/05/15 11:40:46;;;;;;;3.20;2.13;;;;;;;20.48;49.13;99900.56;4916639;29;20024;-88
2022/05/15 11:43:26;;;;;;;6.22;2.08;;;;;;;20.45;49.66;99884.66;4912638;29;20083;-88
2022/05/15 11:45:54;;;;;;;3.03;2.10;;;;;;;20.36;51.16;99882.09;4930094;29;20028;-88
2022/05/15 11:48:22;;;;;;;3.20;1.80;;;;;;;20.52;49.35;99883.63;4914785;29;20489;-89
2022/05/15 11:51:07;;;;;;;6.13;1.80;;;;;;;20.67;48.33;99878.88;4898581;29;20042;-88
2022/05/15 11:53:34;;;;;;;3.50;1.67;;;;;;;20.56;48.88;99871.31;4901958;29;20065;-89
2022/05/15 11:56:20;;;;;;;5.10;1.77;;;;;;;20.56;49.68;99870.47;4932095;29;20031;-88
2022/05/15 11:58:52;;;;;;;4.20;1.95;;;;;;;20.68;48.08;99866.97;4923903;29;20083;-91
2022/05/15 12:01:35;;;;;;;4.47;2.10;;;;;;;20.61;48.55;99867.97;4909437;29;20063;-95